createdAt,value
2022-10-11T00:01:18.838Z,32.40
2022-10-11T00:03:49.747Z,32.40
2022-10-11T00:06:23.103Z,32.30
2022-10-11T00:08:53.847Z,32.40
2022-10-11T00:11:27.133Z,33.00
2022-10-11T00:13:57.888Z,32.10
2022-10-11T00:16:28.683Z,32.20
2022-10-11T00:18:59.458Z,33.10
2022-10-11T00:21:30.679Z,36.50
2022-10-11T00:24:01.372Z,37.70
2022-10-11T00:26:37.376Z,35.60
2022-10-11T00:29:08.148Z,37.40
2022-10-11T00:31:41.402Z,41.30
2022-10-11T00:34:13.356Z,43.40
2022-10-11T00:36:44.160Z,77.20
2022-10-11T00:39:15.586Z,83.20
2022-10-11T00:41:49.378Z,99.90
2022-10-11T00:44:22.267Z,97.10
2022-10-11T00:47:01.086Z,97.00
2022-10-11T00:49:38.412Z,94.50
2022-10-11T00:52:14.466Z,86.80
2022-10-11T00:54:48.415Z,80.60
2022-10-11T00:57:25.469Z,76.30
2022-10-11T00:59:59.465Z,72.00
2022-10-11T01:02:30.715Z,73.00
2022-10-11T01:05:27.653Z,67.30
2022-10-11T01:07:53.382Z,68.30
2022-10-11T01:10:27.394Z,64.10
2022-10-11T01:13:10.317Z,64.90
2022-10-11T01:15:48.553Z,65.20
2022-10-11T01:18:24.853Z,61.90
2022-10-11T01:21:05.850Z,64.10
2022-10-11T01:24:08.216Z,61.80
2022-10-11T01:27:09.304Z,59.70
2022-10-11T01:29:54.172Z,59.90
2022-10-11T01:32:34.361Z,58.00
2022-10-11T01:35:11.151Z,57.40
2022-10-11T01:37:45.719Z,59.40
2022-10-11T01:40:23.971Z,56.90
2022-10-11T01:42:56.453Z,58.70
2022-10-11T01:45:27.646Z,55.70
2022-10-11T01:48:11.361Z,56.10
2022-10-11T01:50:45.459Z,56.20
2022-10-11T01:53:42.240Z,55.00
2022-10-11T01:56:24.980Z,54.40
2022-10-11T01:59:12.676Z,55.50
2022-10-11T02:01:57.117Z,55.00
2022-10-11T02:04:40.297Z,54.10
2022-10-11T02:07:17.496Z,53.20
2022-10-11T02:09:53.459Z,55.60
2022-10-11T02:12:31.013Z,56.30
2022-10-11T02:15:05.206Z,55.20
2022-10-11T02:17:40.672Z,56.10
2022-10-11T02:20:18.564Z,55.60
2022-10-11T02:22:56.075Z,56.00
2022-10-11T02:25:30.184Z,57.00
2022-10-11T02:28:04.277Z,54.50
2022-10-11T02:30:37.376Z,58.00
2022-10-11T02:33:12.489Z,56.40
2022-10-11T02:35:50.802Z,55.50
2022-10-11T02:38:26.222Z,58.20
2022-10-11T02:41:03.009Z,56.20
2022-10-11T02:43:40.052Z,54.80
